Time;durP1;ratioP1;P1;durP2;ratioP2;P2;SDS_P1;SDS_P2;PMS_P1;PMS_P2;Temp;Humidity;BMP_temperature;BMP_pressure;BME280_temperature;BME280_humidity;BME280_pressure;Samples;Min_cycle;Max_cycle;Signal;HPM_P1;HPM_P2
2023/04/21 00:01:01;;;;;;;15.67;14.37;;;;;;;4.05;100.00;99931.97;5069344;28;20196;-73
2023/04/21 00:03:27;;;;;;;15.83;14.63;;;;;;;3.98;100.00;99931.06;5051343;28;20780;-76
2023/04/21 00:05:55;;;;;;;14.60;13.40;;;;;;;3.92;100.00;99921.59;5068787;28;20206;-75
2023/04/21 00:08:20;;;;;;;15.17;13.97;;;;;;;3.89;100.00;99913.88;5050952;28;20178;-77
2023/04/21 00:10:46;;;;;;;14.60;13.40;;;;;;;3.85;100.00;99907.03;5052202;28;20194;-74
2023/04/21 00:13:11;;;;;;;13.80;12.63;;;;;;;3.83;100.00;99907.81;5067380;28;20592;-76
2023/04/21 00:15:36;;;;;;;13.63;12.53;;;;;;;3.78;100.00;99923.13;5066681;28;20202;-73
2023/04/21 00:18:03;;;;;;;14.20;13.10;;;;;;;3.75;100.00;99920.53;5064293;28;20241;-76
2023/04/21 00:20:30;;;;;;;14.23;13.03;;;;;;;3.70;100.00;99917.91;5069017;28;20960;-75
2023/04/21 00:22:56;;;;;;;13.20;12.07;;;;;;;3.68;100.00;99919.59;5061651;28;20196;-74
2023/04/21 00:25:23;;;;;;;13.37;12.17;;;;;;;3.65;100.00;99919.53;5067972;28;20684;-75
2023/04/21 00:27:48;;;;;;;12.90;11.90;;;;;;;3.63;100.00;99921.25;5069510;28;20201;-75
2023/04/21 00:30:14;;;;;;;13.50;12.40;;;;;;;3.62;100.00;99912.69;5065318;28;20188;-75
2023/04/21 00:32:39;;;;;;;15.07;13.87;;;;;;;3.61;100.00;99910.97;5070322;28;20205;-75
2023/04/21 00:35:05;;;;;;;13.50;12.30;;;;;;;3.59;100.00;99909.25;5047545;28;20227;-75
2023/04/21 00:37:31;;;;;;;12.87;11.87;;;;;;;3.55;100.00;99905.78;5065609;28;20200;-75
2023/04/21 00:39:57;;;;;;;14.97;13.77;;;;;;;3.50;100.00;99898.03;5067185;28;20253;-74
2023/04/21 00:42:23;;;;;;;12.77;11.67;;;;;;;3.49;100.00;99900.56;5070522;28;20294;-75
2023/04/21 00:44:48;;;;;;;13.37;12.27;;;;;;;3.47;100.00;99889.44;5067345;28;20193;-76
2023/04/21 00:47:13;;;;;;;12.73;11.73;;;;;;;3.46;100.00;99900.53;5069702;28;20391;-75
2023/04/21 00:49:39;;;;;;;13.93;12.70;;;;;;;3.47;100.00;99899.69;5050084;28;20656;-75
2023/04/21 00:52:05;;;;;;;13.03;11.93;;;;;;;3.46;100.00;99901.41;5067983;28;20181;-74
2023/04/21 00:54:31;;;;;;;13.83;12.63;;;;;;;3.46;100.00;99888.59;5050633;28;20218;-74
2023/04/21 00:57:00;;;;;;;13.60;12.50;;;;;;;3.45;100.00;99884.34;5067847;28;20205;-75
2023/04/21 00:59:26;;;;;;;13.90;12.80;;;;;;;3.44;100.00;99884.28;5067260;28;21195;-73
2023/04/21 01:01:51;;;;;;;13.30;12.30;;;;;;;3.41;100.00;99885.13;5065491;28;20277;-75
2023/04/21 01:04:17;;;;;;;12.47;11.57;;;;;;;3.41;100.00;99892.78;5069218;28;20284;-76
2023/04/21 01:06:42;;;;;;;13.43;12.33;;;;;;;3.40;100.00;99885.94;5067602;28;20211;-75
2023/04/21 01:09:08;;;;;;;13.10;12.00;;;;;;;3.38;100.00;99881.66;5054595;28;22482;-75
2023/04/21 01:11:33;;;;;;;13.73;12.63;;;;;;;3.39;100.00;99875.72;5070838;28;20561;-76
2023/04/21 01:13:58;;;;;;;14.20;13.10;;;;;;;3.38;100.00;99879.09;5069826;28;20185;-74
2023/04/21 01:16:24;;;;;;;13.47;12.37;;;;;;;3.40;100.00;99877.44;5072697;28;20316;-76
2023/04/21 01:18:52;;;;;;;14.23;13.03;;;;;;;3.42;100.00;99876.59;5068573;28;20208;-75
2023/04/21 01:21:18;;;;;;;13.50;12.37;;;;;;;3.38;100.00;99869.72;5067146;28;20226;-74
2023/04/21 01:23:44;;;;;;;13.27;12.17;;;;;;;3.33;100.00;99876.47;5070534;28;20661;-75
2023/04/21 01:26:09;;;;;;;12.70;11.67;;;;;;;3.34;100.00;99875.63;5069566;28;20683;-76
2023/04/21 01:28:35;;;;;;;13.50;12.40;;;;;;;3.30;100.00;99879.00;5070853;28;20277;-74
2023/04/21 01:31:01;;;;;;;13.97;12.80;;;;;;;3.30;100.00;99884.97;5055694;28;20220;-75
2023/04/21 01:33:26;;;;;;;13.37;12.27;;;;;;;3.30;100.00;99879.00;5053644;28;20737;-75
2023/04/21 01:35:52;;;;;;;13.73;12.63;;;;;;;3.25;100.00;99880.63;5072384;28;20213;-75
2023/04/21 01:38:17;;;;;;;14.53;13.23;;;;;;;3.18;100.00;99885.63;5073269;28;20189;-77
2023/04/21 01:40:46;;;;;;;14.43;13.23;;;;;;;3.16;100.00;99887.34;5073786;28;20201;-76
2023/04/21 01:43:13;;;;;;;14.10;12.90;;;;;;;3.13;100.00;99888.97;5067455;28;20760;-76
2023/04/21 01:45:38;;;;;;;13.53;12.43;;;;;;;3.04;100.00;99894.78;5071513;28;20189;-74
2023/04/21 01:48:04;;;;;;;13.00;11.87;;;;;;;2.99;100.00;99886.22;5084528;28;20668;-76
2023/04/21 01:50:29;;;;;;;12.73;11.73;;;;;;;2.98;100.00;99881.94;5051222;28;20282;-75
2023/04/21 01:52:54;;;;;;;13.23;12.13;;;;;;;2.98;100.00;99881.94;5072357;28;20209;-74
2023/04/21 01:55:20;;;;;;;12.97;11.97;;;;;;;2.96;100.00;99888.72;5070438;28;20224;-76
2023/04/21 01:57:45;;;;;;;12.80;11.70;;;;;;;2.93;100.00;99888.66;5070896;28;20209;-75
2023/04/21 02:00:11;;;;;;;11.97;10.97;;;;;;;2.86;100.00;99890.25;5068858;28;20242;-74
2023/04/21 02:02:36;;;;;;;11.97;10.90;;;;;;;2.81;100.00;99894.44;5072210;28;20185;-75
2023/04/21 02:05:02;;;;;;;11.57;10.60;;;;;;;2.73;100.00;99894.31;5070070;28;20196;-74
2023/04/21 02:07:27;;;;;;;11.90;10.83;;;;;;;2.69;100.00;99897.66;5074633;28;20303;-75
2023/04/21 02:09:53;;;;;;;11.80;10.70;;;;;;;2.64;100.00;99901.81;5070693;28;20181;-75
2023/04/21 02:12:18;;;;;;;12.20;11.20;;;;;;;2.62;100.00;99906.91;5071719;28;20273;-75
2023/04/21 02:14:46;;;;;;;10.90;10.00;;;;;;;2.58;100.00;99907.69;5072158;28;21084;-74
2023/04/21 02:17:12;;;;;;;12.37;11.33;;;;;;;2.54;100.00;99903.34;5071816;28;20263;-76
2023/04/21 02:19:37;;;;;;;13.20;11.90;;;;;;;2.51;100.00;99909.28;5053383;28;20673;-71
2023/04/21 02:22:02;;;;;;;11.80;10.90;;;;;;;2.46;100.00;99908.31;5071378;28;20190;-76
2023/04/21 02:24:28;;;;;;;12.30;11.20;;;;;;;2.44;100.00;99910.00;5071737;28;20208;-75
2023/04/21 02:26:53;;;;;;;12.30;11.20;;;;;;;2.42;100.00;99907.41;5071025;28;20235;-75
2023/04/21 02:29:18;;;;;;;12.10;11.10;;;;;;;2.43;100.00;99910.81;5055510;28;20279;-75
2023/04/21 02:31:44;;;;;;;11.20;10.30;;;;;;;2.44;100.00;99902.34;5070974;28;20892;-74
2023/04/21 02:34:09;;;;;;;11.73;10.73;;;;;;;2.46;100.00;99912.59;5074277;28;20258;-75
2023/04/21 02:36:34;;;;;;;12.93;11.93;;;;;;;2.46;100.00;99910.03;5070325;28;20213;-75
2023/04/21 02:38:59;;;;;;;12.43;11.43;;;;;;;2.47;100.00;99916.88;5072990;28;20668;-76
2023/04/21 02:41:25;;;;;;;12.17;11.10;;;;;;;2.48;100.00;99911.78;5070489;28;22762;-76
2023/04/21 02:43:50;;;;;;;12.83;11.77;;;;;;;2.49;100.00;99907.53;5053626;28;20249;-75
2023/04/21 02:46:15;;;;;;;13.17;12.07;;;;;;;2.48;100.00;99914.34;5070541;28;20541;-73
2023/04/21 02:48:41;;;;;;;12.50;11.40;;;;;;;2.47;100.00;99909.22;5073722;28;20193;-75
2023/04/21 02:51:13;;;;;;;12.17;11.07;;;;;;;2.46;100.00;99910.88;5071629;28;20217;-75
2023/04/21 02:53:39;;;;;;;13.27;12.07;;;;;;;2.43;100.00;99914.25;5081895;28;20355;-75
2023/04/21 02:56:08;;;;;;;13.20;12.00;;;;;;;2.40;100.00;99919.31;5079028;28;20239;-75
2023/04/21 02:58:35;;;;;;;14.00;12.80;;;;;;;2.35;100.00;99920.91;5075428;28;20185;-76
2023/04/21 03:01:02;;;;;;;13.70;12.40;;;;;;;2.31;100.00;99919.16;5078841;28;20194;-75
2023/04/21 03:03:27;;;;;;;12.67;11.47;;;;;;;2.26;100.00;99915.63;5074484;28;20188;-75
2023/04/21 03:05:57;;;;;;;13.60;12.30;;;;;;;2.22;100.00;99912.16;5080406;28;20194;-75
2023/04/21 03:08:22;;;;;;;12.43;11.43;;;;;;;2.21;100.00;99910.44;5075118;28;20189;-75
2023/04/21 03:10:47;;;;;;;11.50;10.53;;;;;;;2.15;100.00;99902.66;5074610;28;20680;-75
2023/04/21 03:13:13;;;;;;;12.73;11.47;;;;;;;2.10;100.00;99889.81;5077891;28;20831;-75
2023/04/21 03:15:38;;;;;;;13.03;11.93;;;;;;;2.08;100.00;99891.47;5075793;28;20209;-74
2023/04/21 03:18:03;;;;;;;12.07;10.90;;;;;;;2.08;100.00;99894.03;5081461;28;20213;-74
2023/04/21 03:20:29;;;;;;;12.77;11.60;;;;;;;2.08;100.00;99888.91;5048320;28;20178;-76
2023/04/21 03:22:54;;;;;;;11.40;10.40;;;;;;;2.10;100.00;99889.81;5068411;28;20319;-76
2023/04/21 03:25:19;;;;;;;11.43;10.43;;;;;;;2.12;100.00;99892.38;5066773;28;20189;-74
2023/04/21 03:27:45;;;;;;;11.07;10.07;;;;;;;2.12;100.00;99890.69;5054541;28;20208;-76
2023/04/21 03:30:10;;;;;;;10.47;9.60;;;;;;;2.13;100.00;99884.78;5068212;28;20275;-75
2023/04/21 03:32:36;;;;;;;11.83;10.63;;;;;;;2.14;100.00;99895.81;5070169;28;20232;-76
2023/04/21 03:35:01;;;;;;;11.80;10.70;;;;;;;2.13;100.00;99884.78;5068338;28;20205;-75
2023/04/21 03:37:26;;;;;;;11.37;10.47;;;;;;;2.14;100.00;99883.06;5051947;28;20776;-75
2023/04/21 03:39:52;;;;;;;10.63;9.73;;;;;;;2.13;100.00;99889.88;5067442;28;20233;-74
2023/04/21 03:42:17;;;;;;;16.23;12.93;;;;;;;2.14;100.00;99885.63;5068034;28;20539;-76
2023/04/21 03:44:42;;;;;;;12.03;10.87;;;;;;;2.06;100.00;99890.56;5068827;28;20237;-75
2023/04/21 03:47:07;;;;;;;13.13;11.83;;;;;;;2.01;100.00;99897.31;5066277;28;20210;-75
2023/04/21 03:49:33;;;;;;;12.47;11.33;;;;;;;1.98;100.00;99895.53;5067654;28;20283;-76
2023/04/21 03:51:58;;;;;;;12.20;11.10;;;;;;;1.95;100.00;99885.28;5051528;28;20711;-77
2023/04/21 03:54:24;;;;;;;12.30;11.10;;;;;;;1.96;100.00;99881.91;5067935;28;20185;-74
2023/04/21 03:56:49;;;;;;;12.60;11.40;;;;;;;1.95;100.00;99881.84;5067311;28;20272;-77
2023/04/21 03:59:15;;;;;;;12.30;11.20;;;;;;;1.93;100.00;99881.84;5070513;28;20190;-75
2023/04/21 04:01:41;;;;;;;11.80;10.60;;;;;;;1.87;100.00;99871.50;5074114;28;20200;-75
2023/04/21 04:04:06;;;;;;;12.93;11.63;;;;;;;1.83;100.00;99864.59;5059483;28;20215;-75
2023/04/21 04:06:32;;;;;;;12.33;11.23;;;;;;;1.77;100.00;99861.94;5076661;28;20287;-75
2023/04/21 04:08:57;;;;;;;11.47;10.53;;;;;;;1.71;100.00;99866.91;5075075;28;20654;-73
2023/04/21 04:11:22;;;;;;;11.03;10.10;;;;;;;1.66;100.00;99867.66;5068829;28;20181;-75
2023/04/21 04:13:48;;;;;;;11.17;10.13;;;;;;;1.64;100.00;99865.94;5054208;28;20205;-76
2023/04/21 04:16:13;;;;;;;10.87;9.90;;;;;;;1.62;100.00;99865.91;5065134;28;20248;-75
2023/04/21 04:18:39;;;;;;;11.30;10.37;;;;;;;1.60;100.00;99882.00;5069351;28;20887;-74
2023/04/21 04:21:07;;;;;;;10.97;9.97;;;;;;;1.59;100.00;99885.41;5069384;28;20185;-74
2023/04/21 04:23:34;;;;;;;11.30;10.30;;;;;;;1.58;100.00;99891.31;5052828;28;20215;-75
2023/04/21 04:26:00;;;;;;;10.80;9.90;;;;;;;1.60;100.00;99882.00;5067806;28;20210;-75
2023/04/21 04:28:26;;;;;;;12.27;11.17;;;;;;;1.62;100.00;99867.59;5071127;28;20193;-75
2023/04/21 04:30:51;;;;;;;12.03;10.93;;;;;;;1.60;100.00;99851.38;5071126;28;20193;-75
2023/04/21 04:33:17;;;;;;;11.57;10.57;;;;;;;1.65;100.00;99858.34;5069731;28;20718;-74
2023/04/21 04:35:42;;;;;;;13.17;11.97;;;;;;;1.63;100.00;99849.78;5069783;28;20291;-75
2023/04/21 04:38:07;;;;;;;12.30;11.30;;;;;;;1.62;100.00;99863.38;5047740;28;20427;-76
2023/04/21 04:40:33;;;;;;;11.43;10.43;;;;;;;1.63;100.00;99867.63;5065962;28;20197;-73
2023/04/21 04:42:58;;;;;;;11.70;10.70;;;;;;;1.63;100.00;99870.19;5073843;28;20197;-74
2023/04/21 04:45:27;;;;;;;11.60;10.60;;;;;;;1.65;100.00;99875.31;5076199;28;20181;-74
2023/04/21 04:47:52;;;;;;;11.37;10.37;;;;;;;1.66;100.00;99880.44;5085007;28;20240;-75
2023/04/21 04:50:18;;;;;;;11.60;10.60;;;;;;;1.68;100.00;99881.31;5071257;28;20690;-75
2023/04/21 04:52:45;;;;;;;12.57;11.47;;;;;;;1.73;100.00;99890.78;5061314;28;20204;-76
2023/04/21 04:55:11;;;;;;;11.67;10.67;;;;;;;1.76;100.00;99889.13;5075658;28;20202;-75
2023/04/21 04:57:37;;;;;;;11.83;10.83;;;;;;;1.80;100.00;99892.63;5082926;28;20236;-76
2023/04/21 05:00:05;;;;;;;12.23;11.10;;;;;;;1.80;100.00;99898.59;5078027;28;20697;-75
2023/04/21 05:02:31;;;;;;;11.70;10.60;;;;;;;1.80;100.00;99902.84;5083669;28;20652;-75
2023/04/21 05:04:56;;;;;;;11.20;10.27;;;;;;;1.80;100.00;99906.25;5074935;28;20678;-74
2023/04/21 05:07:22;;;;;;;11.67;10.57;;;;;;;1.83;100.00;99902.88;5076560;28;20205;-74
2023/04/21 05:09:47;;;;;;;11.77;10.70;;;;;;;1.87;100.00;99908.94;5085256;28;20185;-74
2023/04/21 05:12:12;;;;;;;11.73;10.63;;;;;;;1.91;100.00;99908.13;5083734;28;20211;-75
2023/04/21 05:14:38;;;;;;;11.33;10.33;;;;;;;1.93;100.00;99907.34;5086213;28;20300;-75
2023/04/21 05:17:03;;;;;;;11.40;10.50;;;;;;;1.96;100.00;99907.44;5074183;28;20201;-74
2023/04/21 05:19:28;;;;;;;10.60;9.70;;;;;;;1.95;100.00;99913.34;5073734;28;21159;-75
2023/04/21 05:21:59;;;;;;;10.90;9.90;;;;;;;1.94;100.00;99920.97;5071723;28;20197;-75
2023/04/21 05:24:25;;;;;;;10.70;9.77;;;;;;;1.91;100.00;99916.66;5075510;28;21054;-76
2023/04/21 05:26:50;;;;;;;10.80;9.70;;;;;;;1.92;100.00;99922.63;5073877;28;20225;-75
2023/04/21 05:29:15;;;;;;;10.93;9.93;;;;;;;1.95;100.00;99923.56;5051781;28;20516;-77
2023/04/21 05:31:40;;;;;;;11.47;10.47;;;;;;;2.00;100.00;99931.31;5070398;28;20842;-74
2023/04/21 05:34:06;;;;;;;11.80;10.80;;;;;;;2.05;100.00;99922.03;5070240;28;20922;-76
2023/04/21 05:36:31;;;;;;;12.60;11.40;;;;;;;2.11;100.00;99924.72;5069377;28;20215;-74
2023/04/21 05:38:56;;;;;;;14.27;12.87;;;;;;;2.16;100.00;99929.91;5052573;28;20181;-74
2023/04/21 05:41:22;;;;;;;13.47;12.27;;;;;;;2.19;100.00;99924.03;5070008;28;21220;-76
2023/04/21 05:43:48;;;;;;;13.87;12.67;;;;;;;2.24;100.00;99933.50;5069554;28;20186;-75
2023/04/21 05:46:13;;;;;;;13.73;12.53;;;;;;;2.26;100.00;99930.94;5077019;28;20244;-75
2023/04/21 05:48:39;;;;;;;13.27;12.07;;;;;;;2.27;100.00;99930.13;5080479;28;20215;-75
2023/04/21 05:51:11;;;;;;;12.87;11.70;;;;;;;2.27;100.00;99930.97;5065423;28;20266;-75
2023/04/21 05:53:38;;;;;;;12.13;11.07;;;;;;;2.26;100.00;99931.81;5068454;28;20889;-74
2023/04/21 05:56:03;;;;;;;13.50;12.30;;;;;;;2.27;100.00;99942.88;5069064;28;20213;-76
2023/04/21 05:58:29;;;;;;;13.83;12.53;;;;;;;2.28;100.00;99950.56;5082026;28;20246;-75
2023/04/21 06:00:54;;;;;;;14.17;12.90;;;;;;;2.34;100.00;99946.41;5071293;28;20669;-74
2023/04/21 06:03:19;;;;;;;15.17;13.87;;;;;;;2.38;100.00;99938.84;5081616;28;20178;-73
2023/04/21 06:05:46;;;;;;;15.63;14.33;;;;;;;2.38;100.00;99936.28;5075568;28;20178;-74
2023/04/21 06:08:11;;;;;;;14.90;13.67;;;;;;;2.39;100.00;99953.34;5074894;28;20268;-75
2023/04/21 06:10:37;;;;;;;15.70;14.40;;;;;;;2.44;100.00;99951.75;5080448;28;20623;-75
2023/04/21 06:13:02;;;;;;;16.37;14.87;;;;;;;2.53;100.00;99943.38;5075296;28;20409;-75
2023/04/21 06:15:27;;;;;;;16.53;15.03;;;;;;;2.72;100.00;99943.72;5072590;28;20485;-75
2023/04/21 06:17:54;;;;;;;18.80;15.20;;;;;;;3.25;100.00;99931.78;5074655;28;20592;-77
2023/04/21 06:20:19;;;;;;;14.90;13.70;;;;;;;4.21;100.00;99935.59;5070079;28;20720;-76
2023/04/21 06:22:45;;;;;;;13.87;12.80;;;;;;;5.34;100.00;99927.19;5075903;28;20181;-76
2023/04/21 06:25:10;;;;;;;14.27;13.07;;;;;;;6.59;100.00;99932.88;5073209;28;20179;-76
2023/04/21 06:27:35;;;;;;;12.67;11.67;;;;;;;7.61;99.05;99923.41;5064549;28;20215;-75
2023/04/21 06:30:00;;;;;;;10.93;10.13;;;;;;;8.54;94.86;99917.84;5049039;28;20964;-75
2023/04/21 06:32:26;;;;;;;11.13;10.33;;;;;;;9.40;91.23;99915.41;5068430;28;20189;-75
2023/04/21 06:34:51;;;;;;;10.23;9.47;;;;;;;10.30;88.18;99913.47;5065442;28;20302;-74
2023/04/21 06:37:16;;;;;;;10.70;9.80;;;;;;;11.03;85.39;99915.00;5070548;28;20211;-75
2023/04/21 06:39:42;;;;;;;10.23;9.43;;;;;;;11.65;83.36;99917.31;5072297;28;20552;-76
2023/04/21 06:42:07;;;;;;;9.20;8.40;;;;;;;12.25;81.57;99915.25;5073356;28;20185;-75
2023/04/21 06:44:32;;;;;;;9.40;8.60;;;;;;;12.64;79.76;99899.69;5054022;28;20668;-77
2023/04/21 06:46:58;;;;;;;9.50;8.80;;;;;;;13.00;78.30;99903.16;5073860;28;20213;-74
2023/04/21 06:49:23;;;;;;;9.93;9.03;;;;;;;13.26;77.65;99908.53;5069386;28;20213;-75
2023/04/21 06:51:48;;;;;;;10.07;9.17;;;;;;;13.37;76.52;99910.00;5051613;28;20617;-75
2023/04/21 06:54:14;;;;;;;9.90;9.00;;;;;;;13.49;75.85;99899.31;5073037;28;20704;-76
2023/04/21 06:56:40;;;;;;;9.73;8.93;;;;;;;13.53;75.31;99900.09;5071379;28;20873;-76
2023/04/21 06:59:06;;;;;;;10.33;9.43;;;;;;;13.53;74.65;99900.94;5071666;28;20193;-75
2023/04/21 07:01:31;;;;;;;8.67;7.97;;;;;;;13.59;75.26;99894.69;5069789;28;20683;-75
2023/04/21 07:03:56;;;;;;;8.97;8.13;;;;;;;13.62;74.41;99889.44;5070949;28;20204;-74
2023/04/21 07:06:22;;;;;;;9.13;8.33;;;;;;;13.35;73.81;99894.47;5072061;28;20208;-75
2023/04/21 07:08:47;;;;;;;8.83;8.13;;;;;;;13.25;74.46;99893.84;5072437;28;20209;-76
2023/04/21 07:11:12;;;;;;;9.30;8.50;;;;;;;13.36;75.19;99890.09;5070007;28;20202;-76
2023/04/21 07:13:37;;;;;;;8.80;8.10;;;;;;;13.45;75.41;99889.91;5069968;28;20217;-75
2023/04/21 07:16:03;;;;;;;8.13;7.40;;;;;;;13.59;75.50;99893.88;5070119;28;20246;-76
2023/04/21 07:18:28;;;;;;;7.27;6.67;;;;;;;13.64;74.97;99885.03;5072427;28;20198;-76
2023/04/21 07:20:54;;;;;;;7.33;6.73;;;;;;;13.45;74.65;99881.22;5070007;28;20194;-75
2023/04/21 07:23:19;;;;;;;6.50;5.90;;;;;;;13.23;75.74;99882.63;5065302;28;20185;-76
2023/04/21 07:25:44;;;;;;;6.93;6.33;;;;;;;13.16;76.31;99880.25;5073491;28;20205;-75
2023/04/21 07:28:10;;;;;;;6.47;5.97;;;;;;;13.06;77.32;99871.81;5055013;28;20188;-77
2023/04/21 07:30:36;;;;;;;6.27;5.77;;;;;;;13.09;77.99;99874.34;5054104;28;20302;-76
2023/04/21 07:33:01;;;;;;;6.37;5.87;;;;;;;13.04;78.03;99869.28;5067410;28;21020;-75
2023/04/21 07:35:27;;;;;;;5.80;5.37;;;;;;;12.92;78.46;99872.19;5071925;28;20320;-77
2023/04/21 07:37:52;;;;;;;6.03;5.60;;;;;;;12.84;79.19;99876.72;5069399;28;20210;-76
2023/04/21 07:40:18;;;;;;;5.30;4.80;;;;;;;12.84;79.54;99871.53;5069144;28;20283;-76
2023/04/21 07:42:43;;;;;;;5.23;4.80;;;;;;;12.75;79.56;99865.69;5070872;28;20217;-76
2023/04/21 07:45:09;;;;;;;5.00;4.60;;;;;;;12.67;79.71;99875.38;5072528;28;20190;-77
2023/04/21 07:47:34;;;;;;;5.00;4.50;;;;;;;12.56;79.76;99870.44;5069628;28;20297;-76
2023/04/21 07:50:00;;;;;;;4.80;4.40;;;;;;;12.41;80.08;99870.81;5072837;28;20330;-77
2023/04/21 07:52:25;;;;;;;4.47;4.07;;;;;;;12.31;80.16;99875.38;5072737;28;20189;-75
2023/04/21 07:54:50;;;;;;;5.17;4.67;;;;;;;12.19;80.20;99872.16;5072020;28;20948;-75
2023/04/21 07:57:16;;;;;;;5.93;5.43;;;;;;;11.95;80.66;99870.06;5066440;28;20220;-75
2023/04/21 07:59:41;;;;;;;5.97;5.47;;;;;;;12.04;81.40;99859.53;5069916;28;20182;-75
2023/04/21 08:02:07;;;;;;;6.93;5.60;;;;;;;11.90;81.71;99863.25;5073077;28;20264;-76
2023/04/21 08:04:32;;;;;;;5.63;5.13;;;;;;;11.76;82.59;99867.03;5080551;28;20664;-75
2023/04/21 08:06:58;;;;;;;6.63;5.63;;;;;;;11.84;82.83;99863.38;5071987;28;20210;-75
2023/04/21 08:09:23;;;;;;;5.70;5.20;;;;;;;11.93;83.16;99866.66;5066627;28;20192;-76
2023/04/21 08:11:48;;;;;;;5.57;5.07;;;;;;;12.09;83.56;99857.69;5069510;28;20200;-77
2023/04/21 08:14:14;;;;;;;5.00;4.50;;;;;;;12.16;83.40;99856.69;5051024;28;20771;-76
2023/04/21 08:16:41;;;;;;;5.10;4.70;;;;;;;12.19;83.79;99858.34;5067679;28;20288;-76
2023/04/21 08:19:07;;;;;;;4.80;4.40;;;;;;;11.94;83.62;99847.63;5071346;28;20193;-75
2023/04/21 08:21:33;;;;;;;6.10;4.73;;;;;;;11.80;83.89;99851.38;5071197;28;20279;-77
2023/04/21 08:23:58;;;;;;;4.87;3.47;;;;;;;11.70;84.49;99840.31;5064854;28;20212;-76
2023/04/21 08:26:24;;;;;;;3.43;3.17;;;;;;;11.76;85.04;99833.31;5068882;28;20210;-76
2023/04/21 08:28:51;;;;;;;3.90;3.60;;;;;;;11.85;85.45;99838.28;5064393;28;20189;-78
2023/04/21 08:31:18;;;;;;;3.57;3.17;;;;;;;11.90;85.42;99828.69;5047536;28;20934;-76
2023/04/21 08:33:44;;;;;;;3.43;3.13;;;;;;;11.95;85.36;99826.00;5068535;28;20200;-76
2023/04/21 08:36:10;;;;;;;3.10;2.77;;;;;;;12.03;85.76;99824.97;5066964;28;20214;-75
2023/04/21 08:38:36;;;;;;;2.43;2.23;;;;;;;12.14;86.08;99819.53;5070650;28;20205;-76
2023/04/21 08:41:02;;;;;;;2.20;2.00;;;;;;;12.19;85.53;99820.25;5066953;28;20273;-76
2023/04/21 08:43:27;;;;;;;2.47;2.27;;;;;;;12.30;85.32;99822.63;5068830;28;20663;-76
2023/04/21 08:45:53;;;;;;;2.07;1.97;;;;;;;12.28;84.85;99818.38;5071082;28;20192;-77
2023/04/21 08:48:21;;;;;;;2.00;1.80;;;;;;;12.39;85.06;99818.13;5050002;28;20200;-76
2023/04/21 08:50:48;;;;;;;2.13;2.03;;;;;;;12.37;85.35;99823.31;5066952;28;20282;-74
2023/04/21 08:53:15;;;;;;;2.70;2.50;;;;;;;12.22;84.75;99811.59;5069084;28;20186;-75
2023/04/21 08:55:41;;;;;;;2.77;2.50;;;;;;;12.30;84.45;99821.78;5075349;28;20691;-75
2023/04/21 08:58:08;;;;;;;2.53;2.33;;;;;;;12.39;84.31;99808.56;5067637;28;20189;-75
2023/04/21 09:00:36;;;;;;;2.40;2.20;;;;;;;12.42;84.45;99803.31;5069003;28;20275;-76
2023/04/21 09:03:02;;;;;;;2.70;2.50;;;;;;;12.46;84.64;99797.16;5073855;28;20196;-75
2023/04/21 09:05:30;;;;;;;2.80;2.60;;;;;;;12.50;84.54;99782.38;5071537;28;20184;-76
2023/04/21 09:08:13;;;;;;;3.20;2.90;;;;;;;12.44;84.39;99785.09;5070761;28;20211;-76
2023/04/21 09:10:47;;;;;;;3.20;2.90;;;;;;;12.51;84.97;99776.28;5079169;28;20196;-78
2023/04/21 09:13:12;;;;;;;2.80;2.60;;;;;;;12.57;85.14;99777.88;5094332;28;20357;-78
2023/04/21 09:15:43;;;;;;;2.70;2.50;;;;;;;12.57;84.43;99772.69;5079690;28;20217;-77
2023/04/21 09:18:14;;;;;;;3.30;2.60;;;;;;;12.64;84.89;99769.00;5074276;28;20197;-75
2023/04/21 09:20:42;;;;;;;4.00;2.93;;;;;;;12.75;84.59;99761.81;5071153;28;20194;-76
2023/04/21 09:23:09;;;;;;;2.90;2.70;;;;;;;12.83;85.13;99765.94;5073557;28;20180;-76
2023/04/21 09:25:38;;;;;;;2.70;2.50;;;;;;;12.96;84.08;99757.78;5068541;28;20270;-76
2023/04/21 09:28:07;;;;;;;5.73;2.90;;;;;;;12.95;83.58;99758.69;5073024;28;20684;-75
2023/04/21 09:30:37;;;;;;;3.70;2.20;;;;;;;13.06;84.03;99762.72;5072514;28;20184;-75
2023/04/21 09:33:03;;;;;;;2.77;2.27;;;;;;;13.17;83.46;99754.63;5073135;28;20199;-76
2023/04/21 09:35:40;;;;;;;3.53;3.00;;;;;;;13.28;83.88;99760.38;5071107;28;20251;-75
2023/04/21 09:38:11;;;;;;;3.17;2.77;;;;;;;13.44;83.39;99749.56;5056674;28;20201;-75
2023/04/21 09:40:36;;;;;;;4.23;3.23;;;;;;;13.41;82.91;99746.16;5069914;28;20194;-76
2023/04/21 09:43:02;;;;;;;4.30;2.77;;;;;;;13.43;82.76;99742.66;5070996;28;20678;-75
2023/04/21 09:45:28;;;;;;;4.17;3.70;;;;;;;13.46;83.38;99739.97;5074136;28;20185;-75
2023/04/21 09:48:01;;;;;;;3.43;2.80;;;;;;;13.54;83.90;99748.38;5069249;28;20208;-76
2023/04/21 09:50:28;;;;;;;3.73;3.43;;;;;;;13.63;82.69;99740.31;5074147;28;20223;-77
2023/04/21 09:52:55;;;;;;;4.07;2.97;;;;;;;13.72;82.86;99745.22;5069710;28;20278;-75
2023/04/21 09:55:28;;;;;;;3.80;3.13;;;;;;;13.85;82.79;99742.25;5071997;28;20588;-76
2023/04/21 09:57:59;;;;;;;3.70;3.37;;;;;;;14.00;82.75;99744.38;5052474;28;20205;-75
2023/04/21 10:00:28;;;;;;;3.50;2.97;;;;;;;13.99;82.02;99740.06;5074111;28;20208;-76
2023/04/21 10:02:56;;;;;;;3.33;3.03;;;;;;;14.16;83.01;99738.66;5076007;28;20181;-75
2023/04/21 10:05:21;;;;;;;4.07;2.90;;;;;;;14.22;82.36;99735.03;5059187;28;20183;-76
2023/04/21 10:07:48;;;;;;;2.67;2.47;;;;;;;14.31;81.47;99739.94;5054183;28;20237;-75
2023/04/21 10:10:25;;;;;;;3.17;2.90;;;;;;;14.40;81.89;99731.81;5073128;28;20196;-75
2023/04/21 10:12:52;;;;;;;3.13;2.60;;;;;;;14.49;81.66;99712.41;5073560;28;20664;-75
2023/04/21 10:15:36;;;;;;;3.20;2.50;;;;;;;14.59;79.96;99712.94;5073309;28;20221;-74
2023/04/21 10:18:17;;;;;;;2.20;2.00;;;;;;;14.72;79.60;99708.19;5070193;28;20240;-74
2023/04/21 10:21:02;;;;;;;3.40;2.63;;;;;;;14.76;80.75;99707.16;5075115;28;20193;-74
2023/04/21 10:23:34;;;;;;;3.43;3.13;;;;;;;14.77;79.29;99706.25;5072321;28;20189;-75
2023/04/21 10:26:21;;;;;;;3.23;2.73;;;;;;;14.79;79.29;99704.47;5069636;28;20190;-75
2023/04/21 10:28:50;;;;;;;2.97;2.63;;;;;;;14.87;80.37;99699.84;5070352;28;20241;-75
2023/04/21 10:31:22;;;;;;;3.17;2.70;;;;;;;14.90;79.64;99706.69;5072633;28;20185;-75
2023/04/21 10:34:09;;;;;;;3.93;2.93;;;;;;;14.98;79.86;99699.44;5072357;28;20190;-76
2023/04/21 10:36:44;;;;;;;4.20;3.80;;;;;;;15.01;79.26;99694.09;5073266;28;20752;-75
2023/04/21 10:39:15;;;;;;;3.27;2.90;;;;;;;15.08;79.73;99706.03;5071458;28;20184;-74
2023/04/21 10:41:42;;;;;;;4.23;3.23;;;;;;;15.05;79.96;99700.06;5070879;28;20178;-75
2023/04/21 10:44:12;;;;;;;5.17;3.50;;;;;;;15.13;80.28;99691.94;5064509;28;20200;-74
2023/04/21 10:46:49;;;;;;;4.33;3.60;;;;;;;15.18;80.22;99692.63;5072125;28;20212;-75
2023/04/21 10:49:17;;;;;;;3.77;3.47;;;;;;;15.22;80.03;99676.81;5068109;28;20725;-76
2023/04/21 10:51:58;;;;;;;4.67;3.50;;;;;;;15.22;79.43;99686.41;5069485;28;20185;-75
2023/04/21 10:54:28;;;;;;;3.43;2.80;;;;;;;15.26;79.32;99676.69;5069164;28;20189;-75
2023/04/21 10:56:55;;;;;;;3.03;2.70;;;;;;;15.34;79.07;99678.13;5069305;28;20208;-74
2023/04/21 10:59:21;;;;;;;5.43;3.20;;;;;;;15.35;78.51;99677.19;5069067;28;20275;-73
2023/04/21 11:01:46;;;;;;;2.87;2.67;;;;;;;15.43;78.78;99674.31;5068958;28;20221;-74
2023/04/21 11:04:19;;;;;;;3.77;3.00;;;;;;;15.51;78.56;99660.97;5071651;28;20312;-74
2023/04/21 11:07:07;;;;;;;3.00;2.33;;;;;;;15.62;79.03;99655.31;5072206;28;20217;-75
2023/04/21 11:09:34;;;;;;;5.57;2.60;;;;;;;15.70;78.36;99650.63;5074348;28;20189;-75
2023/04/21 11:12:02;;;;;;;5.07;2.20;;;;;;;15.80;79.46;99644.16;5073562;28;20281;-75
2023/04/21 11:14:28;;;;;;;2.40;2.20;;;;;;;15.86;77.63;99653.50;5072050;28;20194;-75
2023/04/21 11:16:53;;;;;;;6.20;2.30;;;;;;;15.90;77.45;99642.00;5074362;28;20220;-76
2023/04/21 11:19:23;;;;;;;2.87;2.40;;;;;;;15.90;76.29;99643.78;5070722;28;20661;-76
2023/04/21 11:21:49;;;;;;;2.30;2.20;;;;;;;15.94;76.99;99638.38;5050907;28;20216;-75